Time;durP1;ratioP1;P1;durP2;ratioP2;P2;SDS_P1;SDS_P2;PMS_P1;PMS_P2;Temp;Humidity;BMP_temperature;BMP_pressure;BME280_temperature;BME280_humidity;BME280_pressure;Samples;Min_cycle;Max_cycle;Signal;HPM_P1;HPM_P2
2022/01/08 00:01:50;;;;;;;;;;;;;;;;;;4222299;28;1071;-55
2022/01/08 00:04:10;;;;;;;;;;;;;;;;;;4222511;28;998;-55
2022/01/08 00:06:30;;;;;;;;;;;;;;;;;;4221814;28;1104;-55
2022/01/08 00:08:51;;;;;;;;;;;;;;;;;;4221928;28;944;-55
2022/01/08 00:11:18;;;;;;;;;;;;;;;;;;4222234;28;1425;-55
2022/01/08 00:13:40;;;;;;;;;;;;;;;;;;4222053;28;827;-55
2022/01/08 00:16:00;;;;;;;;;;;;;;;;;;4220685;28;1204;-56
2022/01/08 00:18:20;;;;;;;;;;;;;;;;;;4221758;28;973;-55
2022/01/08 00:20:40;;;;;;;;;;;;;;;;;;4222189;28;1018;-55
2022/01/08 00:23:00;;;;;;;;;;;;;;;;;;4222051;28;1036;-55
2022/01/08 00:25:21;;;;;;;;;;;;;;;;;;4221650;28;1197;-56
2022/01/08 00:27:41;;;;;;;;;;;;;;;;;;4221600;28;1906;-55
2022/01/08 00:30:01;;;;;;;;;;;;;;;;;;4221531;28;966;-55
2022/01/08 00:32:22;;;;;;;;;;;;;;;;;;4221531;28;942;-55
2022/01/08 00:34:42;;;;;;;;;;;;;;;;;;4221746;28;1192;-55
2022/01/08 00:37:02;;;;;;;;;;;;;;;;;;4222047;28;952;-55
2022/01/08 00:39:23;;;;;;;;;;;;;;;;;;4221691;28;1003;-55
2022/01/08 00:41:43;;;;;;;;;;;;;;;;;;4221842;28;1259;-55
2022/01/08 00:44:03;;;;;;;;;;;;;;;;;;4221864;28;933;-55
2022/01/08 00:46:23;;;;;;;;;;;;;;;;;;4221881;28;1047;-55
2022/01/08 00:48:44;;;;;;;;;;;;;;;;;;4221938;28;1968;-55
2022/01/08 00:51:04;;;;;;;;;;;;;;;;;;4221791;28;942;-55
2022/01/08 00:53:25;;;;;;;;;;;;;;;;;;4221702;28;1081;-55
2022/01/08 00:55:45;;;;;;;;;;;;;;;;;;4221556;28;1080;-55
2022/01/08 00:58:05;;;;;;;;;;;;;;;;;;4221290;28;945;-55
2022/01/08 01:00:26;;;;;;;;;;;;;;;;;;4221462;28;1223;-55
2022/01/08 01:02:46;;;;;;;;;;;;;;;;;;4221256;28;1051;-55
2022/01/08 01:05:06;;;;;;;;;;;;;;;;;;4221690;28;1039;-55
2022/01/08 01:07:27;;;;;;;;;;;;;;;;;;4221191;28;1983;-55
2022/01/08 01:09:48;;;;;;;;;;;;;;;;;;4221460;28;983;-55
2022/01/08 01:12:08;;;;;;;;;;;;;;;;;;4221000;28;1073;-55
2022/01/08 01:14:28;;;;;;;;;;;;;;;;;;4221742;28;1090;-55
2022/01/08 01:16:48;;;;;;;;;;;;;;;;;;4220372;28;1291;-55
2022/01/08 01:19:09;;;;;;;;;;;;;;;;;;4221499;28;950;-55
2022/01/08 01:21:29;;;;;;;;;;;;;;;;;;4221034;28;943;-55
2022/01/08 01:23:50;;;;;;;;;;;;;;;;;;4221251;28;1038;-55
2022/01/08 01:26:15;;;;;;;;;;;;;;;;;;4221117;28;1179;-55
2022/01/08 01:28:45;;;;;;;;;;;;;;;;;;4223397;28;1976;-55
2022/01/08 01:41:47;;;;;;;;;;;;;;;;;;4223474;28;1161;-55
2022/01/08 01:47:01;;;;;;;;;;;;;;;;;;4223980;28;995;-55
2022/01/08 01:49:22;;;;;;;;;;;;;;;;;;4223784;28;977;-55
2022/01/08 01:51:42;;;;;;;;;;;;;;;;;;4223763;28;1117;-55
2022/01/08 01:54:03;;;;;;;;;;;;;;;;;;4223521;28;1663;-55
2022/01/08 01:56:23;;;;;;;;;;;;;;;;;;4223976;28;1225;-55
2022/01/08 01:58:43;;;;;;;;;;;;;;;;;;4223344;28;1114;-55
2022/01/08 02:04:07;;;;;;;;;;;;;;;;;;4223128;28;1016;-55
2022/01/08 02:06:28;;;;;;;;;;;;;;;;;;4223093;28;969;-55
2022/01/08 02:08:48;;;;;;;;;;;;;;;;;;4223446;28;1905;-55
2022/01/08 02:11:08;;;;;;;;;;;;;;;;;;4223723;28;825;-55
2022/01/08 02:13:29;;;;;;;;;;;;;;;;;;4223363;28;994;-55
2022/01/08 02:15:52;;;;;;;;;;;;;;;;;;4223231;28;945;-55
2022/01/08 02:18:12;;;;;;;;;;;;;;;;;;4223568;28;1287;-55
2022/01/08 02:20:33;;;;;;;;;;;;;;;;;;4223133;28;1037;-55
2022/01/08 02:22:53;;;;;;;;;;;;;;;;;;4223202;28;1019;-55
2022/01/08 02:25:13;;;;;;;;;;;;;;;;;;4223261;28;961;-55
2022/01/08 02:27:34;;;;;;;;;;;;;;;;;;4223084;28;1922;-55
2022/01/08 02:29:54;;;;;;;;;;;;;;;;;;4223620;28;1231;-55
2022/01/08 02:32:15;;;;;;;;;;;;;;;;;;4223141;28;1226;-55
2022/01/08 02:34:35;;;;;;;;;;;;;;;;;;4222993;28;927;-56
2022/01/08 02:36:56;;;;;;;;;;;;;;;;;;4222973;28;1206;-55
2022/01/08 02:39:16;;;;;;;;;;;;;;;;;;4221994;28;1047;-55
2022/01/08 02:41:36;;;;;;;;;;;;;;;;;;4222978;28;936;-55
2022/01/08 02:43:56;;;;;;;;;;;;;;;;;;4222937;28;1014;-55
2022/01/08 02:46:17;;;;;;;;;;;;;;;;;;4223331;28;1007;-55
2022/01/08 02:48:37;;;;;;;;;;;;;;;;;;4222881;28;1905;-55
2022/01/08 02:50:58;;;;;;;;;;;;;;;;;;4222909;28;1252;-55
2022/01/08 02:53:19;;;;;;;;;;;;;;;;;;4223361;28;1000;-55
2022/01/08 02:55:39;;;;;;;;;;;;;;;;;;4223252;28;1023;-55
2022/01/08 02:57:59;;;;;;;;;;;;;;;;;;4222629;28;1068;-55
2022/01/08 03:00:20;;;;;;;;;;;;;;;;;;4222919;28;1292;-55
2022/01/08 03:02:40;;;;;;;;;;;;;;;;;;4221836;28;1198;-55
2022/01/08 03:05:01;;;;;;;;;;;;;;;;;;4223107;28;993;-55
2022/01/08 03:07:21;;;;;;;;;;;;;;;;;;4222620;28;1394;-55
2022/01/08 03:09:42;;;;;;;;;;;;;;;;;;4222785;28;2039;-55
2022/01/08 03:12:03;;;;;;;;;;;;;;;;;;4222556;28;1031;-55
2022/01/08 03:14:23;;;;;;;;;;;;;;;;;;4223031;28;1006;-55
2022/01/08 03:16:43;;;;;;;;;;;;;;;;;;4222632;28;925;-55
2022/01/08 03:19:09;;;;;;;;;;;;;;;;;;4222602;28;1194;-55
2022/01/08 03:21:35;;;;;;;;;;;;;;;;;;4222653;28;1033;-55
2022/01/08 03:23:59;;;;;;;;;;;;;;;;;;4222721;28;1140;-55
2022/01/08 03:26:19;;;;;;;;;;;;;;;;;;4222497;28;942;-55
2022/01/08 03:28:39;;;;;;;;;;;;;;;;;;4222204;28;1909;-55
2022/01/08 03:31:00;;;;;;;;;;;;;;;;;;4222449;28;931;-55
2022/01/08 03:33:20;;;;;;;;;;;;;;;;;;4222407;28;1081;-55
2022/01/08 03:35:40;;;;;;;;;;;;;;;;;;4222511;28;1096;-55
2022/01/08 03:38:01;;;;;;;;;;;;;;;;;;4222252;28;1065;-55
2022/01/08 03:40:21;;;;;;;;;;;;;;;;;;4222521;28;974;-55
2022/01/08 03:42:41;;;;;;;;;;;;;;;;;;4221940;28;1007;-55
2022/01/08 03:45:01;;;;;;;;;;;;;;;;;;4222386;28;986;-55
2022/01/08 03:47:29;;;;;;;;;;;;;;;;;;4222671;28;954;-55
2022/01/08 03:49:50;;;;;;;;;;;;;;;;;;4222140;28;1901;-55
2022/01/08 03:52:11;;;;;;;;;;;;;;;;;;4221832;28;1958;-55
2022/01/08 03:54:32;;;;;;;;;;;;;;;;;;4222406;28;997;-55
2022/01/08 03:56:52;;;;;;;;;;;;;;;;;;4221958;28;935;-55
2022/01/08 03:59:13;;;;;;;;;;;;;;;;;;4221691;28;1116;-55
2022/01/08 04:01:33;;;;;;;;;;;;;;;;;;4222097;28;962;-55
2022/01/08 04:03:53;;;;;;;;;;;;;;;;;;4221630;28;997;-55
2022/01/08 04:06:14;;;;;;;;;;;;;;;;;;4222004;28;1022;-55
2022/01/08 04:08:34;;;;;;;;;;;;;;;;;;4222003;28;1977;-55
2022/01/08 04:10:54;;;;;;;;;;;;;;;;;;4221749;28;1169;-54
2022/01/08 04:13:18;;;;;;;;;;;;;;;;;;4221671;28;1147;-55
2022/01/08 04:15:41;;;;;;;;;;;;;;;;;;4221668;28;986;-55
2022/01/08 04:18:02;;;;;;;;;;;;;;;;;;4221335;28;1220;-55
2022/01/08 04:20:22;;;;;;;;;;;;;;;;;;4221922;28;1154;-55
2022/01/08 04:22:43;;;;;;;;;;;;;;;;;;4222268;28;844;-55
2022/01/08 04:25:04;;;;;;;;;;;;;;;;;;4221976;28;1092;-55
2022/01/08 04:27:24;;;;;;;;;;;;;;;;;;4222035;28;857;-55
2022/01/08 04:29:45;;;;;;;;;;;;;;;;;;4220190;28;1910;-55
2022/01/08 04:32:05;;;;;;;;;;;;;;;;;;4221466;28;1378;-55
2022/01/08 04:34:26;;;;;;;;;;;;;;;;;;4221965;28;934;-55
2022/01/08 04:36:46;;;;;;;;;;;;;;;;;;4220548;28;1096;-54
2022/01/08 04:39:07;;;;;;;;;;;;;;;;;;4221928;28;1188;-55
2022/01/08 04:41:27;;;;;;;;;;;;;;;;;;4221620;28;1186;-58
2022/01/08 04:43:47;;;;;;;;;;;;;;;;;;4221545;28;1190;-55
2022/01/08 04:46:07;;;;;;;;;;;;;;;;;;4221803;28;1535;-55
2022/01/08 04:48:28;;;;;;;;;;;;;;;;;;4221299;28;1984;-55
2022/01/08 04:50:48;;;;;;;;;;;;;;;;;;4221725;28;1001;-55
2022/01/08 04:53:08;;;;;;;;;;;;;;;;;;4221665;28;1247;-55
2022/01/08 04:55:28;;;;;;;;;;;;;;;;;;4221655;28;969;-55
2022/01/08 04:57:49;;;;;;;;;;;;;;;;;;4221711;28;1207;-55
2022/01/08 05:00:09;;;;;;;;;;;;;;;;;;4221687;28;928;-55
2022/01/08 05:02:30;;;;;;;;;;;;;;;;;;4222020;28;1215;-55
2022/01/08 05:04:50;;;;;;;;;;;;;;;;;;4224911;28;821;-54
2022/01/08 05:07:10;;;;;;;;;;;;;;;;;;4224797;28;972;-55
2022/01/08 05:09:30;;;;;;;;;;;;;;;;;;4224204;28;1913;-55
2022/01/08 05:11:50;;;;;;;;;;;;;;;;;;4224630;28;1063;-55
2022/01/08 05:14:11;;;;;;;;;;;;;;;;;;4224531;28;1190;-55
2022/01/08 05:16:31;;;;;;;;;;;;;;;;;;4224382;28;1177;-55
2022/01/08 05:18:54;;;;;;;;;;;;;;;;;;4224110;28;1163;-56
2022/01/08 05:21:21;;;;;;;;;;;;;;;;;;4224387;28;1117;-55
2022/01/08 05:23:42;;;;;;;;;;;;;;;;;;4224284;28;1136;-55
2022/01/08 05:26:02;;;;;;;;;;;;;;;;;;4224326;28;978;-55
2022/01/08 05:28:22;;;;;;;;;;;;;;;;;;4224370;28;1062;-55
2022/01/08 05:30:42;;;;;;;;;;;;;;;;;;4224458;28;946;-55
2022/01/08 05:33:02;;;;;;;;;;;;;;;;;;4223919;28;1116;-55
2022/01/08 05:35:23;;;;;;;;;;;;;;;;;;4224011;28;1115;-55
2022/01/08 05:37:43;;;;;;;;;;;;;;;;;;4208735;28;950;-55
2022/01/08 05:40:03;;;;;;;;;;;;;;;;;;4223721;28;927;-55
2022/01/08 05:42:24;;;;;;;;;;;;;;;;;;4224137;28;952;-55
2022/01/08 05:44:44;;;;;;;;;;;;;;;;;;4223919;28;1050;-55
2022/01/08 05:47:04;;;;;;;;;;;;;;;;;;4224064;28;892;-55
2022/01/08 05:49:25;;;;;;;;;;;;;;;;;;4223678;28;1890;-55
2022/01/08 05:51:45;;;;;;;;;;;;;;;;;;4223870;28;945;-55
2022/01/08 05:54:05;;;;;;;;;;;;;;;;;;4223596;28;985;-55
2022/01/08 05:56:26;;;;;;;;;;;;;;;;;;4223613;28;1167;-55
2022/01/08 05:58:46;;;;;;;;;;;;;;;;;;4223464;28;1363;-56
2022/01/08 06:01:06;;;;;;;;;;;;;;;;;;4223629;28;1166;-55
2022/01/08 06:03:26;;;;;;;;;;;;;;;;;;4223931;28;1114;-55
2022/01/08 06:05:47;;;;;;;;;;;;;;;;;;4223441;28;1283;-55
2022/01/08 06:08:07;;;;;;;;;;;;;;;;;;4223402;28;1141;-55
2022/01/08 06:10:27;;;;;;;;;;;;;;;;;;4223375;28;1905;-55
2022/01/08 06:12:47;;;;;;;;;;;;;;;;;;4223505;28;1192;-55
2022/01/08 06:15:08;;;;;;;;;;;;;;;;;;4223295;28;1166;-55
2022/01/08 06:17:28;;;;;;;;;;;;;;;;;;4223450;28;1204;-55
2022/01/08 06:19:48;;;;;;;;;;;;;;;;;;4223628;28;1136;-55
2022/01/08 06:22:08;;;;;;;;;;;;;;;;;;4223810;28;1113;-55
2022/01/08 06:24:30;;;;;;;;;;;;;;;;;;4223569;28;1125;-55
2022/01/08 06:26:50;;;;;;;;;;;;;;;;;;4223761;28;1021;-55
2022/01/08 06:29:10;;;;;;;;;;;;;;;;;;4223287;28;1910;-55
2022/01/08 06:31:31;;;;;;;;;;;;;;;;;;4223537;28;1229;-55
2022/01/08 06:33:51;;;;;;;;;;;;;;;;;;4223148;28;1041;-55
2022/01/08 06:36:11;;;;;;;;;;;;;;;;;;4223033;28;1244;-56
2022/01/08 06:38:32;;;;;;;;;;;;;;;;;;4223601;28;880;-55
2022/01/08 06:40:52;;;;;;;;;;;;;;;;;;4222903;28;1139;-55
2022/01/08 06:43:13;;;;;;;;;;;;;;;;;;4223154;28;1004;-55
2022/01/08 06:45:33;;;;;;;;;;;;;;;;;;4223161;28;964;-55
2022/01/08 06:47:53;;;;;;;;;;;;;;;;;;4223172;28;1013;-55
2022/01/08 06:50:13;;;;;;;;;;;;;;;;;;4223180;28;1914;-55
2022/01/08 06:52:34;;;;;;;;;;;;;;;;;;4222907;28;1091;-55
2022/01/08 06:54:54;;;;;;;;;;;;;;;;;;4222497;28;1013;-55
2022/01/08 06:57:15;;;;;;;;;;;;;;;;;;4223274;28;948;-55
2022/01/08 06:59:35;;;;;;;;;;;;;;;;;;4222744;28;985;-55
2022/01/08 07:01:55;;;;;;;;;;;;;;;;;;4222974;28;955;-55
2022/01/08 07:04:16;;;;;;;;;;;;;;;;;;4222890;28;1157;-55
2022/01/08 07:06:36;;;;;;;;;;;;;;;;;;4223141;28;1304;-55
2022/01/08 07:08:56;;;;;;;;;;;;;;;;;;4223068;28;1161;-55
2022/01/08 07:11:17;;;;;;;;;;;;;;;;;;4222966;28;1971;-55
2022/01/08 07:13:37;;;;;;;;;;;;;;;;;;4222847;28;966;-55
2022/01/08 07:15:58;;;;;;;;;;;;;;;;;;4222843;28;954;-55
2022/01/08 07:18:18;;;;;;;;;;;;;;;;;;4222883;28;1068;-55
2022/01/08 07:20:38;;;;;;;;;;;;;;;;;;4223042;28;944;-55
2022/01/08 07:23:00;;;;;;;;;;;;;;;;;;4222866;28;1084;-55
2022/01/08 07:25:20;;;;;;;;;;;;;;;;;;4221742;28;1159;-55
2022/01/08 07:27:41;;;;;;;;;;;;;;;;;;4222489;28;972;-55
2022/01/08 07:30:01;;;;;;;;;;;;;;;;;;4222759;28;1961;-55
2022/01/08 07:32:21;;;;;;;;;;;;;;;;;;4222785;28;884;-55
2022/01/08 07:34:41;;;;;;;;;;;;;;;;;;4222640;28;980;-55
2022/01/08 07:37:01;;;;;;;;;;;;;;;;;;4222722;28;1251;-55
2022/01/08 07:39:21;;;;;;;;;;;;;;;;;;4222492;28;976;-55
2022/01/08 07:41:42;;;;;;;;;;;;;;;;;;4222379;28;1178;-55
2022/01/08 07:44:02;;;;;;;;;;;;;;;;;;4222311;28;961;-55
2022/01/08 07:46:22;;;;;;;;;;;;;;;;;;4222589;28;1142;-55
2022/01/08 07:48:43;;;;;;;;;;;;;;;;;;4222099;28;1029;-55
2022/01/08 07:51:03;;;;;;;;;;;;;;;;;;4223228;28;1989;-55
2022/01/08 07:53:23;;;;;;;;;;;;;;;;;;4222038;28;953;-55
2022/01/08 07:55:44;;;;;;;;;;;;;;;;;;4222696;28;1049;-55
2022/01/08 07:58:04;;;;;;;;;;;;;;;;;;4222337;28;988;-55
2022/01/08 08:00:24;;;;;;;;;;;;;;;;;;4221985;28;1040;-55
2022/01/08 08:02:45;;;;;;;;;;;;;;;;;;4222154;28;1379;-55
2022/01/08 08:05:04;;;;;;;;;;;;;;;;;;4222033;28;1017;-55
2022/01/08 08:07:25;;;;;;;;;;;;;;;;;;4222423;28;903;-55
2022/01/08 08:09:45;;;;;;;;;;;;;;;;;;4221872;28;1911;-55
2022/01/08 08:12:05;;;;;;;;;;;;;;;;;;4221754;28;1012;-55
2022/01/08 08:14:25;;;;;;;;;;;;;;;;;;4221996;28;1169;-55
2022/01/08 08:16:46;;;;;;;;;;;;;;;;;;4221936;28;1070;-55
2022/01/08 08:19:06;;;;;;;;;;;;;;;;;;4221978;28;1067;-55
2022/01/08 08:21:26;;;;;;;;;;;;;;;;;;4222013;28;1135;-55
2022/01/08 08:23:47;;;;;;;;;;;;;;;;;;4221947;28;1046;-55
2022/01/08 08:26:07;;;;;;;;;;;;;;;;;;4222263;28;845;-55
2022/01/08 08:28:29;;;;;;;;;;;;;;;;;;4221806;28;1193;-55
2022/01/08 08:30:50;;;;;;;;;;;;;;;;;;4221981;28;1905;-55
2022/01/08 08:33:10;;;;;;;;;;;;;;;;;;4221781;28;986;-55
2022/01/08 08:35:30;;;;;;;;;;;;;;;;;;4222246;28;845;-55
2022/01/08 08:37:51;;;;;;;;;;;;;;;;;;4220346;28;1007;-55
2022/01/08 08:40:11;;;;;;;;;;;;;;;;;;4221397;28;1465;-55
2022/01/08 08:42:31;;;;;;;;;;;;;;;;;;4221750;28;1045;-55
2022/01/08 08:44:51;;;;;;;;;;;;;;;;;;4221487;28;1213;-56
2022/01/08 08:47:11;;;;;;;;;;;;;;;;;;4221746;28;1164;-55
2022/01/08 08:49:32;;;;;;;;;;;;;;;;;;4206547;28;1021;-55
2022/01/08 08:51:53;;;;;;;;;;;;;;;;;;4214626;28;3393;-55
2022/01/08 08:54:14;;;;;;;;;;;;;;;;;;4204969;28;970;-55
2022/01/08 08:56:34;;;;;;;;;;;;;;;;;;4204844;28;949;-55
2022/01/08 08:58:54;;;;;;;;;;;;;;;;;;4204684;28;1366;-55
2022/01/08 09:01:15;;;;;;;;;;;;;;;;;;4204569;28;2287;-55
2022/01/08 09:03:35;;;;;;;;;;;;;;;;;;4204760;28;848;-57
2022/01/08 09:05:55;;;;;;;;;;;;;;;;;;4204636;28;1372;-56
2022/01/08 09:08:15;;;;;;;;;;;;;;;;;;4204736;28;920;-55
2022/01/08 09:10:35;;;;;;;;;;;;;;;;;;4186576;28;1974;-56
2022/01/08 09:12:56;;;;;;;;;;;;;;;;;;4214359;28;2266;-56
2022/01/08 09:15:20;;;;;;;;;;;;;;;;;;4208056;28;1079;-55
2022/01/08 09:17:41;;;;;;;;;;;;;;;;;;4221152;28;1093;-56
2022/01/08 09:20:01;;;;;;;;;;;;;;;;;;4223504;28;2412;-56
2022/01/08 09:22:21;;;;;;;;;;;;;;;;;;4221660;28;2651;-57
2022/01/08 09:24:42;;;;;;;;;;;;;;;;;;4212849;28;1935;-56
2022/01/08 09:27:02;;;;;;;;;;;;;;;;;;4205963;28;872;-57
2022/01/08 09:29:22;;;;;;;;;;;;;;;;;;4204383;28;950;-57
2022/01/08 09:31:42;;;;;;;;;;;;;;;;;;4207716;28;1985;-58
2022/01/08 09:34:03;;;;;;;;;;;;;;;;;;4204102;28;1964;-58
2022/01/08 09:36:23;;;;;;;;;;;;;;;;;;4204121;28;954;-57
2022/01/08 09:38:44;;;;;;;;;;;;;;;;;;4204166;28;1280;-58
2022/01/08 09:41:05;;;;;;;;;;;;;;;;;;4204646;28;1059;-58
2022/01/08 09:43:25;;;;;;;;;;;;;;;;;;4216479;28;1705;-59
2022/01/08 09:45:45;;;;;;;;;;;;;;;;;;4212112;28;2265;-58
2022/01/08 09:48:06;;;;;;;;;;;;;;;;;;4204454;28;1329;-58
2022/01/08 09:50:27;;;;;;;;;;;;;;;;;;4206839;28;1902;-59
2022/01/08 09:52:47;;;;;;;;;;;;;;;;;;4210390;28;991;-57
2022/01/08 09:55:08;;;;;;;;;;;;;;;;;;4223962;28;1193;-57
2022/01/08 09:57:28;;;;;;;;;;;;;;;;;;4224073;28;965;-57
2022/01/08 09:59:48;;;;;;;;;;;;;;;;;;4223315;28;1162;-57
2022/01/08 10:02:09;;;;;;;;;;;;;;;;;;4223780;28;975;-58
2022/01/08 10:04:29;;;;;;;;;;;;;;;;;;4223994;28;1071;-57
2022/01/08 10:06:49;;;;;;;;;;;;;;;;;;4223461;28;937;-57
2022/01/08 10:09:10;;;;;;;;;;;;;;;;;;4224016;28;1267;-57
2022/01/08 10:11:30;;;;;;;;;;;;;;;;;;4206630;28;1967;-57
2022/01/08 10:13:59;;;;;;;;;;;;;;;;;;4206934;28;858;-58
2022/01/08 10:18:58;;;;;;;;;;;;;;;;;;4206374;28;1646;-58
2022/01/08 10:21:18;;;;;;;;;;;;;;;;;;4206935;28;841;-58
2022/01/08 10:23:38;;;;;;;;;;;;;;;;;;4206753;28;1347;-58
2022/01/08 10:25:58;;;;;;;;;;;;;;;;;;4207215;28;908;-57
2022/01/08 10:28:19;;;;;;;;;;;;;;;;;;4206749;28;938;-58
2022/01/08 10:30:39;;;;;;;;;;;;;;;;;;4206650;28;2084;-58
2022/01/08 10:32:59;;;;;;;;;;;;;;;;;;4206767;28;991;-58
2022/01/08 10:35:19;;;;;;;;;;;;;;;;;;4206251;28;1447;-58
2022/01/08 10:37:40;;;;;;;;;;;;;;;;;;4206380;28;978;-58
2022/01/08 10:40:00;;;;;;;;;;;;;;;;;;4206255;28;1099;-57
2022/01/08 10:42:21;;;;;;;;;;;;;;;;;;4206841;28;983;-58
2022/01/08 10:44:41;;;;;;;;;;;;;;;;;;4206231;28;934;-58
2022/01/08 10:47:02;;;;;;;;;;;;;;;;;;4206151;28;1102;-58
2022/01/08 10:49:22;;;;;;;;;;;;;;;;;;4206421;28;1141;-58
2022/01/08 10:51:42;;;;;;;;;;;;;;;;;;4205837;28;1906;-57
2022/01/08 10:54:03;;;;;;;;;;;;;;;;;;4206112;28;1299;-58
2022/01/08 10:56:23;;;;;;;;;;;;;;;;;;4206118;28;1075;-58
2022/01/08 10:58:43;;;;;;;;;;;;;;;;;;4206705;28;1116;-58
2022/01/08 11:01:03;;;;;;;;;;;;;;;;;;4205371;28;937;-58
2022/01/08 11:03:24;;;;;;;;;;;;;;;;;;4206024;28;951;-58
2022/01/08 11:05:44;;;;;;;;;;;;;;;;;;4206269;28;876;-57
2022/01/08 11:08:05;;;;;;;;;;;;;;;;;;4205740;28;1059;-58
2022/01/08 11:10:25;;;;;;;;;;;;;;;;;;4205965;28;1101;-57
2022/01/08 11:12:45;;;;;;;;;;;;;;;;;;4206008;28;1902;-58
2022/01/08 11:17:49;;;;;;;;;;;;;;;;;;4202595;28;3235;-57
2022/01/08 11:20:09;;;;;;;;;;;;;;;;;;4205646;28;1098;-57
2022/01/08 11:22:29;;;;;;;;;;;;;;;;;;4206428;28;1251;-58
2022/01/08 11:24:49;;;;;;;;;;;;;;;;;;4205776;28;1230;-59
2022/01/08 11:27:09;;;;;;;;;;;;;;;;;;4206107;28;942;-57
2022/01/08 11:29:30;;;;;;;;;;;;;;;;;;4216371;28;2552;-58
2022/01/08 11:31:50;;;;;;;;;;;;;;;;;;4220418;28;1995;-57
2022/01/08 11:34:12;;;;;;;;;;;;;;;;;;4220403;28;1396;-58
2022/01/08 11:36:33;;;;;;;;;;;;;;;;;;4220813;28;955;-57
2022/01/08 11:38:55;;;;;;;;;;;;;;;;;;4221121;28;905;-58
2022/01/08 11:41:15;;;;;;;;;;;;;;;;;;4220850;28;1015;-58
2022/01/08 11:43:36;;;;;;;;;;;;;;;;;;4220910;28;1341;-57
2022/01/08 11:45:56;;;;;;;;;;;;;;;;;;4220687;28;1210;-57
2022/01/08 11:48:17;;;;;;;;;;;;;;;;;;4203718;28;954;-58
2022/01/08 11:50:37;;;;;;;;;;;;;;;;;;4203826;28;1155;-57
2022/01/08 11:52:58;;;;;;;;;;;;;;;;;;4203887;28;1914;-58
2022/01/08 11:55:18;;;;;;;;;;;;;;;;;;4204763;28;978;-57
2022/01/08 11:57:38;;;;;;;;;;;;;;;;;;4203611;28;1163;-57
2022/01/08 11:59:59;;;;;;;;;;;;;;;;;;4204065;28;984;-57
2022/01/08 12:02:20;;;;;;;;;;;;;;;;;;4203434;28;1292;-58
2022/01/08 12:04:40;;;;;;;;;;;;;;;;;;4203546;28;947;-57
2022/01/08 12:07:01;;;;;;;;;;;;;;;;;;4203759;28;1065;-58
2022/01/08 12:09:23;;;;;;;;;;;;;;;;;;4203599;28;967;-58
2022/01/08 12:11:43;;;;;;;;;;;;;;;;;;4204096;28;1996;-57
2022/01/08 12:14:03;;;;;;;;;;;;;;;;;;4203680;28;1166;-58
2022/01/08 12:16:23;;;;;;;;;;;;;;;;;;4203333;28;1217;-57
2022/01/08 12:18:44;;;;;;;;;;;;;;;;;;4202932;28;1085;-59
2022/01/08 12:21:04;;;;;;;;;;;;;;;;;;4203489;28;1046;-57
2022/01/08 12:23:25;;;;;;;;;;;;;;;;;;4210081;28;1871;-57
2022/01/08 12:25:45;;;;;;;;;;;;;;;;;;4220266;28;979;-58
2022/01/08 12:28:05;;;;;;;;;;;;;;;;;;4220451;28;1096;-58
2022/01/08 12:30:26;;;;;;;;;;;;;;;;;;4220681;28;918;-57
2022/01/08 12:32:48;;;;;;;;;;;;;;;;;;4220042;28;1901;-58
2022/01/08 12:35:08;;;;;;;;;;;;;;;;;;4219953;28;951;-58
2022/01/08 12:37:28;;;;;;;;;;;;;;;;;;4220525;28;969;-58
2022/01/08 12:39:49;;;;;;;;;;;;;;;;;;4220579;28;911;-58
2022/01/08 12:42:09;;;;;;;;;;;;;;;;;;4218966;28;1049;-57
2022/01/08 12:44:30;;;;;;;;;;;;;;;;;;4219707;28;1227;-57
2022/01/08 12:46:50;;;;;;;;;;;;;;;;;;4220076;28;1143;-58
2022/01/08 12:49:12;;;;;;;;;;;;;;;;;;4221387;28;1259;-58
2022/01/08 12:51:32;;;;;;;;;;;;;;;;;;4221180;28;1975;-58
2022/01/08 12:53:52;;;;;;;;;;;;;;;;;;4221340;28;1449;-58
2022/01/08 12:56:12;;;;;;;;;;;;;;;;;;4221370;28;1024;-58
2022/01/08 12:58:33;;;;;;;;;;;;;;;;;;4221984;28;947;-57
2022/01/08 13:00:53;;;;;;;;;;;;;;;;;;4221153;28;1003;-58
2022/01/08 13:03:13;;;;;;;;;;;;;;;;;;4221638;28;1092;-57
2022/01/08 13:05:35;;;;;;;;;;;;;;;;;;4221323;28;969;-58
2022/01/08 13:08:02;;;;;;;;;;;;;;;;;;4221081;28;1016;-58
2022/01/08 13:10:25;;;;;;;;;;;;;;;;;;4220836;28;1150;-58
2022/01/08 13:12:46;;;;;;;;;;;;;;;;;;4221018;28;1980;-58
2022/01/08 13:15:06;;;;;;;;;;;;;;;;;;4221061;28;962;-58
2022/01/08 13:17:26;;;;;;;;;;;;;;;;;;4220908;28;1084;-58
2022/01/08 13:19:47;;;;;;;;;;;;;;;;;;4221034;28;1166;-57
2022/01/08 13:22:07;;;;;;;;;;;;;;;;;;4221299;28;1175;-58
2022/01/08 13:24:28;;;;;;;;;;;;;;;;;;4223674;28;953;-58
2022/01/08 13:26:49;;;;;;;;;;;;;;;;;;4224080;28;882;-57
2022/01/08 13:29:10;;;;;;;;;;;;;;;;;;4224314;28;931;-57
2022/01/08 13:31:30;;;;;;;;;;;;;;;;;;4224201;28;986;-58
2022/01/08 13:33:50;;;;;;;;;;;;;;;;;;4224325;28;920;-57
2022/01/08 13:36:12;;;;;;;;;;;;;;;;;;4223738;28;1357;-58
2022/01/08 13:38:32;;;;;;;;;;;;;;;;;;4224253;28;1049;-58
2022/01/08 13:40:53;;;;;;;;;;;;;;;;;;4223615;28;935;-57
2022/01/08 13:43:13;;;;;;;;;;;;;;;;;;4224135;28;1015;-57
2022/01/08 13:45:34;;;;;;;;;;;;;;;;;;4224039;28;845;-57
2022/01/08 13:47:55;;;;;;;;;;;;;;;;;;4223706;28;1053;-58
2022/01/08 13:50:17;;;;;;;;;;;;;;;;;;4223956;28;956;-57
2022/01/08 13:52:39;;;;;;;;;;;;;;;;;;4205807;28;1906;-57
2022/01/08 13:54:59;;;;;;;;;;;;;;;;;;4223937;28;1467;-57
2022/01/08 13:57:20;;;;;;;;;;;;;;;;;;4223629;28;1019;-57
2022/01/08 13:59:41;;;;;;;;;;;;;;;;;;4223926;28;1056;-57
2022/01/08 14:02:02;;;;;;;;;;;;;;;;;;4223829;28;1049;-57
2022/01/08 14:04:24;;;;;;;;;;;;;;;;;;4223793;28;1043;-57
2022/01/08 14:06:44;;;;;;;;;;;;;;;;;;4223732;28;1075;-57
2022/01/08 14:09:05;;;;;;;;;;;;;;;;;;4223799;28;1108;-57
2022/01/08 14:11:25;;;;;;;;;;;;;;;;;;4223796;28;933;-57
2022/01/08 14:13:45;;;;;;;;;;;;;;;;;;4206132;28;1917;-57
2022/01/08 14:16:07;;;;;;;;;;;;;;;;;;4205485;28;1360;-57
2022/01/08 14:18:29;;;;;;;;;;;;;;;;;;4206572;28;1197;-57
2022/01/08 14:20:51;;;;;;;;;;;;;;;;;;4206704;28;998;-57
2022/01/08 14:23:12;;;;;;;;;;;;;;;;;;4206743;28;969;-57
2022/01/08 14:25:32;;;;;;;;;;;;;;;;;;4206482;28;954;-57
2022/01/08 14:27:52;;;;;;;;;;;;;;;;;;4206422;28;1001;-57
2022/01/08 14:30:13;;;;;;;;;;;;;;;;;;4206447;28;999;-57
2022/01/08 14:32:33;;;;;;;;;;;;;;;;;;4206367;28;2005;-57
2022/01/08 14:34:56;;;;;;;;;;;;;;;;;;4205382;28;1080;-57
2022/01/08 14:37:16;;;;;;;;;;;;;;;;;;4206724;28;1019;-57
2022/01/08 14:39:37;;;;;;;;;;;;;;;;;;4206500;28;999;-57
2022/01/08 14:41:57;;;;;;;;;;;;;;;;;;4206567;28;1262;-57
2022/01/08 14:44:17;;;;;;;;;;;;;;;;;;4206290;28;949;-57
2022/01/08 14:46:37;;;;;;;;;;;;;;;;;;4206221;28;1002;-57
2022/01/08 14:48:57;;;;;;;;;;;;;;;;;;4205989;28;1269;-57
2022/01/08 14:51:18;;;;;;;;;;;;;;;;;;4206444;28;989;-57
2022/01/08 14:53:38;;;;;;;;;;;;;;;;;;4206428;28;1983;-57
2022/01/08 14:56:03;;;;;;;;;;;;;;;;;;4206268;28;990;-57
2022/01/08 14:58:23;;;;;;;;;;;;;;;;;;4206136;28;1178;-57
2022/01/08 15:00:43;;;;;;;;;;;;;;;;;;4206260;28;940;-57
2022/01/08 15:03:03;;;;;;;;;;;;;;;;;;4206097;28;1175;-57
2022/01/08 15:05:24;;;;;;;;;;;;;;;;;;4206220;28;1113;-57
2022/01/08 15:07:44;;;;;;;;;;;;;;;;;;4206490;28;1099;-57
2022/01/08 15:10:05;;;;;;;;;;;;;;;;;;4205877;28;1094;-57
2022/01/08 15:12:26;;;;;;;;;;;;;;;;;;4206048;28;1909;-57
2022/01/08 15:14:46;;;;;;;;;;;;;;;;;;4205728;28;984;-57
2022/01/08 15:17:07;;;;;;;;;;;;;;;;;;4205902;28;1486;-57
2022/01/08 15:19:28;;;;;;;;;;;;;;;;;;4205900;28;1002;-57
2022/01/08 15:21:48;;;;;;;;;;;;;;;;;;4205638;28;1199;-57
2022/01/08 15:24:08;;;;;;;;;;;;;;;;;;4205953;28;1004;-57
2022/01/08 15:26:28;;;;;;;;;;;;;;;;;;4205526;28;935;-57
2022/01/08 15:28:48;;;;;;;;;;;;;;;;;;4213948;28;3333;-57
2022/01/08 15:31:10;;;;;;;;;;;;;;;;;;4221142;28;1478;-58
2022/01/08 15:33:30;;;;;;;;;;;;;;;;;;4221644;28;1984;-58
2022/01/08 15:35:50;;;;;;;;;;;;;;;;;;4221799;28;1140;-58
2022/01/08 15:38:11;;;;;;;;;;;;;;;;;;4218963;28;2723;-58
2022/01/08 15:40:31;;;;;;;;;;;;;;;;;;4214665;28;1015;-59
2022/01/08 15:42:53;;;;;;;;;;;;;;;;;;4205621;28;1017;-58
2022/01/08 15:45:13;;;;;;;;;;;;;;;;;;4205983;28;1026;-57
2022/01/08 15:47:33;;;;;;;;;;;;;;;;;;4205141;28;1035;-57
2022/01/08 15:49:53;;;;;;;;;;;;;;;;;;4219557;28;967;-57
2022/01/08 15:52:14;;;;;;;;;;;;;;;;;;4205638;28;1469;-57
2022/01/08 15:54:34;;;;;;;;;;;;;;;;;;4205300;28;1961;-56
2022/01/08 15:56:55;;;;;;;;;;;;;;;;;;4205619;28;1020;-57
2022/01/08 15:59:15;;;;;;;;;;;;;;;;;;4212845;28;1984;-55
2022/01/08 16:01:35;;;;;;;;;;;;;;;;;;4222454;28;909;-56
2022/01/08 16:03:55;;;;;;;;;;;;;;;;;;4222014;28;1069;-56
2022/01/08 16:06:16;;;;;;;;;;;;;;;;;;4220373;28;1737;-55
2022/01/08 16:08:36;;;;;;;;;;;;;;;;;;4213958;28;3384;-55
2022/01/08 16:10:56;;;;;;;;;;;;;;;;;;4219410;28;1405;-55
2022/01/08 16:13:17;;;;;;;;;;;;;;;;;;4219039;28;1897;-54
2022/01/08 16:15:37;;;;;;;;;;;;;;;;;;4213806;28;1089;-54
2022/01/08 16:17:58;;;;;;;;;;;;;;;;;;4210536;28;1458;-55
2022/01/08 16:20:18;;;;;;;;;;;;;;;;;;4236706;28;2506;-55
2022/01/08 16:22:39;;;;;;;;;;;;;;;;;;4213942;28;1272;-55
2022/01/08 16:24:59;;;;;;;;;;;;;;;;;;4204798;28;968;-56
2022/01/08 16:27:21;;;;;;;;;;;;;;;;;;4205151;28;1152;-56
2022/01/08 16:29:46;;;;;;;;;;;;;;;;;;4218779;28;2135;-56
2022/01/08 16:32:06;;;;;;;;;;;;;;;;;;4211542;28;1897;-56
2022/01/08 16:34:26;;;;;;;;;;;;;;;;;;4218936;28;1913;-57
2022/01/08 16:36:47;;;;;;;;;;;;;;;;;;4214014;28;2270;-57
2022/01/08 16:39:13;;;;;;;;;;;;;;;;;;4210022;28;2516;-56
2022/01/08 16:41:34;;;;;;;;;;;;;;;;;;4201524;28;2305;-57
2022/01/08 16:43:55;;;;;;;;;;;;;;;;;;4206721;28;2289;-56